createdAt,value
2023-11-13T00:00:31.908Z,3.47
2023-11-13T00:02:59.405Z,3.30
2023-11-13T00:05:26.944Z,3.80
2023-11-13T00:07:56.500Z,3.55
2023-11-13T00:10:24.395Z,3.70
2023-11-13T00:12:52.305Z,4.05
2023-11-13T00:15:20.637Z,4.30
2023-11-13T00:17:48.744Z,4.15
2023-11-13T00:20:16.371Z,4.13
2023-11-13T00:22:43.822Z,4.72
2023-11-13T00:25:11.617Z,4.80
2023-11-13T00:27:39.266Z,4.47
2023-11-13T00:30:07.680Z,4.63
2023-11-13T00:32:35.104Z,5.22
2023-11-13T00:35:02.565Z,5.68
2023-11-13T00:37:29.989Z,5.63
2023-11-13T00:39:57.432Z,5.65
2023-11-13T00:42:24.849Z,5.30
2023-11-13T00:44:52.298Z,6.00
2023-11-13T00:47:19.686Z,5.70
2023-11-13T00:49:47.928Z,5.70
2023-11-13T00:52:15.308Z,5.43
2023-11-13T00:54:43.554Z,6.22
2023-11-13T00:57:11.021Z,5.60
2023-11-13T00:59:38.803Z,6.25
2023-11-13T01:02:06.230Z,5.75
2023-11-13T01:04:33.667Z,6.50
2023-11-13T01:07:02.278Z,5.97
2023-11-13T01:09:29.908Z,5.97
2023-11-13T01:11:57.513Z,6.50
2023-11-13T01:14:25.345Z,6.30
2023-11-13T01:16:53.045Z,6.60
2023-11-13T01:19:20.580Z,6.57
2023-11-13T01:21:48.065Z,6.35
2023-11-13T01:24:15.534Z,6.60
2023-11-13T01:26:42.966Z,6.45
2023-11-13T01:29:10.368Z,6.43
2023-11-13T01:31:37.806Z,6.53
2023-11-13T01:34:07.160Z,6.65
2023-11-13T01:36:34.930Z,6.82
2023-11-13T01:39:02.611Z,7.20
2023-11-13T01:41:38.153Z,6.85
2023-11-13T01:44:06.365Z,7.13
2023-11-13T01:46:33.889Z,7.32
2023-11-13T01:49:01.453Z,7.18
2023-11-13T01:51:29.574Z,7.65
2023-11-13T01:54:00.698Z,7.70
2023-11-13T01:56:28.490Z,7.60
2023-11-13T01:58:56.512Z,8.93
2023-11-13T02:01:26.865Z,7.90
2023-11-13T02:03:54.585Z,8.27
2023-11-13T02:06:23.533Z,7.95
2023-11-13T02:08:50.992Z,8.43
2023-11-13T02:11:18.472Z,8.38
2023-11-13T02:13:46.133Z,8.00
2023-11-13T02:16:14.031Z,8.70
2023-11-13T02:18:41.520Z,8.70
2023-11-13T02:21:09.881Z,8.82
2023-11-13T02:23:37.320Z,8.57
2023-11-13T02:26:15.964Z,8.85
2023-11-13T02:28:43.804Z,8.63
2023-11-13T02:31:11.361Z,8.65
2023-11-13T02:33:38.796Z,9.02
2023-11-13T02:36:08.299Z,9.32
2023-11-13T02:38:35.768Z,8.77
2023-11-13T02:41:03.193Z,8.75
2023-11-13T02:43:30.600Z,8.98
2023-11-13T02:45:58.090Z,9.05
2023-11-13T02:48:25.578Z,8.95
2023-11-13T02:50:54.245Z,9.45
2023-11-13T02:53:21.804Z,9.23
2023-11-13T02:55:52.302Z,10.10
2023-11-13T02:58:19.965Z,8.75
2023-11-13T03:00:48.533Z,9.50
2023-11-13T03:03:16.236Z,9.02
2023-11-13T03:05:43.689Z,10.23
2023-11-13T03:08:12.132Z,9.75
2023-11-13T03:10:39.708Z,9.23
2023-11-13T03:13:07.198Z,11.13
2023-11-13T03:15:35.804Z,11.15
2023-11-13T03:18:03.406Z,12.30
2023-11-13T03:20:30.807Z,13.80
2023-11-13T03:22:58.294Z,9.30
2023-11-13T03:25:25.736Z,9.50
2023-11-13T03:27:53.407Z,8.93
2023-11-13T03:30:20.926Z,7.88
2023-11-13T03:32:48.437Z,7.28
2023-11-13T03:35:18.499Z,7.28
2023-11-13T03:37:46.051Z,7.80
2023-11-13T03:40:13.810Z,7.03
2023-11-13T03:42:41.555Z,7.10
2023-11-13T03:45:09.417Z,7.45
2023-11-13T03:47:38.118Z,6.60
2023-11-13T03:50:07.802Z,6.95
2023-11-13T03:52:35.608Z,6.03
2023-11-13T03:55:03.052Z,6.40
2023-11-13T03:57:30.831Z,5.90
2023-11-13T03:59:58.216Z,5.35
2023-11-13T04:02:25.632Z,6.25
2023-11-13T04:04:53.140Z,5.60
2023-11-13T04:07:22.574Z,5.25
2023-11-13T04:09:50.428Z,5.57
2023-11-13T04:12:17.916Z,5.90
2023-11-13T04:14:45.307Z,5.25
2023-11-13T04:17:13.278Z,5.15
2023-11-13T04:19:40.663Z,5.35
2023-11-13T04:22:08.100Z,5.72
2023-11-13T04:24:35.513Z,6.20
2023-11-13T04:27:02.913Z,5.45
2023-11-13T04:29:31.812Z,4.80
2023-11-13T04:31:59.650Z,5.10
2023-11-13T04:34:27.128Z,4.65
2023-11-13T04:36:54.541Z,4.60
2023-11-13T04:39:24.441Z,4.72
2023-11-13T04:41:51.791Z,4.45
2023-11-13T04:44:19.164Z,4.70
2023-11-13T04:46:46.963Z,4.55
2023-11-13T04:49:15.484Z,4.68
2023-11-13T04:51:44.180Z,4.68
2023-11-13T04:54:11.602Z,4.35
2023-11-13T04:56:39.039Z,4.38
2023-11-13T04:59:07.678Z,4.07
2023-11-13T05:01:38.258Z,4.50
2023-11-13T05:04:07.418Z,2.88
2023-11-13T05:06:34.943Z,2.47
2023-11-13T05:09:05.822Z,2.08
2023-11-13T05:11:33.201Z,2.20
2023-11-13T05:14:00.614Z,2.15
2023-11-13T05:16:29.996Z,2.35
2023-11-13T05:18:57.626Z,2.50
2023-11-13T05:21:25.055Z,1.67
2023-11-13T05:23:52.639Z,2.40
2023-11-13T05:26:20.367Z,2.20
2023-11-13T05:28:48.146Z,2.25
2023-11-13T05:31:16.210Z,1.88
2023-11-13T05:33:43.828Z,1.60
2023-11-13T05:36:11.271Z,1.90
2023-11-13T05:38:43.372Z,1.75
2023-11-13T05:41:11.360Z,2.00
2023-11-13T05:43:39.288Z,1.90
2023-11-13T05:46:07.044Z,1.52
2023-11-13T05:48:34.903Z,1.92
2023-11-13T05:51:02.416Z,2.10
2023-11-13T05:53:29.908Z,1.98
2023-11-13T05:55:58.058Z,2.28
2023-11-13T05:58:25.729Z,1.55
2023-11-13T06:00:53.200Z,1.73
2023-11-13T06:03:20.586Z,1.63
2023-11-13T06:05:47.973Z,1.70
2023-11-13T06:08:15.380Z,1.92
2023-11-13T06:10:43.084Z,1.77
2023-11-13T06:13:11.380Z,1.50
2023-11-13T06:15:41.716Z,1.88
2023-11-13T06:18:09.427Z,1.92
2023-11-13T06:20:36.889Z,2.17
2023-11-13T06:23:04.357Z,3.50
2023-11-13T06:25:31.804Z,2.97
2023-11-13T06:27:59.292Z,1.80
2023-11-13T06:30:28.395Z,1.65
2023-11-13T06:32:55.855Z,2.00
2023-11-13T06:35:23.275Z,1.75
2023-11-13T06:37:50.723Z,1.83
2023-11-13T06:40:18.701Z,1.70
2023-11-13T06:42:47.692Z,1.58
2023-11-13T06:45:15.910Z,1.83
2023-11-13T06:47:44.369Z,1.50
2023-11-13T06:50:11.943Z,1.40
2023-11-13T06:52:39.658Z,1.20
2023-11-13T06:55:07.933Z,1.50
2023-11-13T06:57:35.326Z,1.38
2023-11-13T07:00:02.961Z,1.50
2023-11-13T07:02:30.634Z,1.23
2023-11-13T07:04:58.077Z,1.20
2023-11-13T07:07:25.479Z,1.23
2023-11-13T07:09:53.568Z,1.58
2023-11-13T07:12:21.874Z,1.30
2023-11-13T07:14:49.484Z,1.23
2023-11-13T07:17:16.850Z,1.23
2023-11-13T07:19:44.284Z,1.35
2023-11-13T07:22:11.959Z,1.35
2023-11-13T07:24:39.761Z,0.98
2023-11-13T07:27:10.223Z,1.15
2023-11-13T07:29:37.795Z,1.10
2023-11-13T07:32:06.018Z,1.35
2023-11-13T07:34:33.484Z,1.98
2023-11-13T07:37:00.961Z,1.50
2023-11-13T07:39:29.358Z,1.58
2023-11-13T07:41:59.916Z,1.23
2023-11-13T07:44:27.339Z,1.30
2023-11-13T07:46:54.865Z,1.10
2023-11-13T07:49:22.569Z,1.42
2023-11-13T07:51:50.188Z,1.00
2023-11-13T07:54:17.896Z,1.00
2023-11-13T07:56:45.261Z,1.38
2023-11-13T07:59:13.181Z,1.23
2023-11-13T08:01:41.883Z,1.23
2023-11-13T08:04:09.620Z,1.00
2023-11-13T08:06:37.129Z,1.48
2023-11-13T08:09:09.232Z,1.00
2023-11-13T08:11:37.245Z,0.90
2023-11-13T08:14:04.711Z,0.90
2023-11-13T08:16:32.648Z,0.80
2023-11-13T08:19:00.508Z,2.05
2023-11-13T08:21:29.081Z,0.90
2023-11-13T08:23:56.441Z,1.00
2023-11-13T08:26:30.043Z,0.70
2023-11-13T08:28:58.782Z,1.17
2023-11-13T08:31:27.546Z,0.70
2023-11-13T08:33:56.217Z,0.70
2023-11-13T08:36:23.994Z,0.98
2023-11-13T08:38:52.097Z,0.90
2023-11-13T08:41:19.875Z,0.80
2023-11-13T08:43:49.388Z,0.75
2023-11-13T08:46:16.967Z,0.70
2023-11-13T08:48:44.490Z,0.90
2023-11-13T08:51:12.912Z,0.75
2023-11-13T08:53:43.871Z,1.10
2023-11-13T08:56:16.945Z,1.00
2023-11-13T08:58:44.553Z,0.80
2023-11-13T09:01:12.821Z,1.20
2023-11-13T09:03:41.159Z,0.90
2023-11-13T09:06:14.646Z,1.13
2023-11-13T09:08:44.438Z,0.80
2023-11-13T09:11:17.519Z,0.90
2023-11-13T09:13:48.100Z,1.10
2023-11-13T09:16:15.813Z,0.90
2023-11-13T09:18:43.307Z,0.95
2023-11-13T09:21:10.675Z,1.02
2023-11-13T09:23:38.556Z,1.15
2023-11-13T09:26:05.946Z,0.90
2023-11-13T09:28:34.631Z,1.40
2023-11-13T09:31:02.335Z,1.20
2023-11-13T09:33:29.967Z,1.58
2023-11-13T09:35:57.501Z,1.40
2023-11-13T09:38:24.947Z,1.20
2023-11-13T09:40:55.442Z,1.30
2023-11-13T09:43:33.683Z,1.42
2023-11-13T09:46:04.596Z,1.63
2023-11-13T09:48:32.292Z,1.88
2023-11-13T09:51:00.002Z,1.75
2023-11-13T09:53:31.100Z,1.48
2023-11-13T09:55:58.696Z,1.65
2023-11-13T09:58:27.395Z,2.00
2023-11-13T10:00:54.919Z,1.80
2023-11-13T10:03:22.427Z,1.70
2023-11-13T10:05:51.889Z,2.00
2023-11-13T10:08:21.934Z,2.10
2023-11-13T10:10:50.394Z,2.10
2023-11-13T10:13:23.027Z,2.45
2023-11-13T10:15:50.503Z,2.60
2023-11-13T10:18:17.901Z,2.10
2023-11-13T10:20:47.289Z,2.42
2023-11-13T10:23:16.294Z,1.75
2023-11-13T10:25:49.042Z,2.72
2023-11-13T10:28:19.167Z,1.92
2023-11-13T10:30:59.720Z,1.77
2023-11-13T10:33:28.050Z,1.52
2023-11-13T10:35:57.089Z,1.80
2023-11-13T10:38:25.800Z,1.60
2023-11-13T10:41:04.750Z,2.05
2023-11-13T10:43:33.594Z,2.33
2023-11-13T10:46:02.085Z,2.30
2023-11-13T10:48:40.987Z,1.85
2023-11-13T10:51:10.354Z,1.40
2023-11-13T10:53:43.538Z,1.90
2023-11-13T10:56:11.145Z,1.45
2023-11-13T10:58:38.727Z,2.00
2023-11-13T11:01:06.854Z,2.20
2023-11-13T11:03:34.807Z,1.40
2023-11-13T11:06:12.457Z,1.83
2023-11-13T11:08:39.932Z,1.67
2023-11-13T11:11:10.108Z,1.30
2023-11-13T11:13:41.227Z,1.77
2023-11-13T11:16:36.928Z,1.40
2023-11-13T11:19:14.650Z,1.15
2023-11-13T11:22:07.159Z,1.30
2023-11-13T11:25:05.308Z,1.42
2023-11-13T11:27:37.470Z,1.27
2023-11-13T11:30:23.581Z,1.05
2023-11-13T11:32:54.309Z,1.95
2023-11-13T11:35:22.493Z,1.55
2023-11-13T11:38:27.633Z,1.30
2023-11-13T11:40:55.750Z,1.60
2023-11-13T11:43:29.144Z,1.75
2023-11-13T11:45:57.522Z,1.83
2023-11-13T11:48:25.780Z,1.45
2023-11-13T11:50:57.278Z,1.60
2023-11-13T11:53:24.846Z,1.60
2023-11-13T11:55:53.056Z,1.60
2023-11-13T11:58:20.521Z,1.60
2023-11-13T12:00:49.551Z,1.58
2023-11-13T12:03:17.203Z,1.45
2023-11-13T12:05:44.823Z,1.30
2023-11-13T12:08:14.648Z,1.50
2023-11-13T12:10:44.240Z,1.60
2023-11-13T12:13:11.892Z,1.58
2023-11-13T12:15:39.420Z,1.40
2023-11-13T12:18:06.886Z,1.80
2023-11-13T12:20:34.745Z,1.60
2023-11-13T12:23:02.164Z,1.88
2023-11-13T12:25:29.665Z,1.70
2023-11-13T12:27:57.115Z,1.65
2023-11-13T12:30:28.051Z,1.70
2023-11-13T12:32:56.036Z,1.80
2023-11-13T12:35:23.869Z,1.55
2023-11-13T12:37:51.897Z,1.75
2023-11-13T12:40:21.053Z,1.88
2023-11-13T12:42:49.096Z,1.90
2023-11-13T12:45:17.774Z,1.73
2023-11-13T12:47:46.809Z,1.42
2023-11-13T12:50:18.003Z,1.50
2023-11-13T12:52:48.031Z,1.30
2023-11-13T12:55:19.343Z,1.60
2023-11-13T12:57:50.826Z,1.60
2023-11-13T13:00:21.071Z,1.40
2023-11-13T13:02:54.670Z,1.50
2023-11-13T13:05:30.305Z,1.67
2023-11-13T13:08:01.168Z,1.35
2023-11-13T13:10:33.110Z,1.70
2023-11-13T13:13:02.248Z,1.67
2023-11-13T13:15:30.170Z,1.33
2023-11-13T13:17:59.659Z,2.05
2023-11-13T13:20:34.241Z,1.42
2023-11-13T13:23:02.849Z,1.63
2023-11-13T13:25:32.368Z,1.63
2023-11-13T13:28:05.256Z,1.50
2023-11-13T13:30:34.672Z,1.63
2023-11-13T13:33:11.082Z,1.60
2023-11-13T13:35:39.531Z,1.80
2023-11-13T13:38:07.102Z,1.70
2023-11-13T13:40:35.225Z,1.45
2023-11-13T13:43:02.974Z,1.73
2023-11-13T13:45:30.528Z,1.50
2023-11-13T13:47:58.360Z,1.65
2023-11-13T13:50:26.284Z,1.70
2023-11-13T13:52:57.662Z,1.45
2023-11-13T13:55:29.660Z,1.77
2023-11-13T13:58:04.999Z,1.70
2023-11-13T14:00:38.008Z,1.77
2023-11-13T14:03:12.248Z,1.98
2023-11-13T14:05:44.245Z,1.50
2023-11-13T14:08:16.936Z,1.70
2023-11-13T14:10:51.875Z,1.58
2023-11-13T14:13:25.959Z,1.85
2023-11-13T14:16:04.615Z,1.50
2023-11-13T14:18:38.569Z,1.75
2023-11-13T14:21:09.977Z,1.67
2023-11-13T14:23:38.196Z,1.60
2023-11-13T14:26:06.116Z,1.63
2023-11-13T14:28:33.604Z,1.73
2023-11-13T14:31:01.078Z,1.63
2023-11-13T14:33:28.481Z,1.90
2023-11-13T14:35:57.198Z,1.70
2023-11-13T14:38:25.153Z,2.08
2023-11-13T14:40:52.572Z,2.30
2023-11-13T14:43:21.708Z,3.22
2023-11-13T14:45:49.461Z,3.00
2023-11-13T14:48:17.629Z,2.72
2023-11-13T14:50:45.628Z,2.63
2023-11-13T14:53:16.012Z,2.60
2023-11-13T14:55:46.330Z,2.17
2023-11-13T14:58:13.874Z,2.83
2023-11-13T15:00:41.389Z,2.70
2023-11-13T15:03:08.986Z,3.30
2023-11-13T15:05:36.462Z,3.17
2023-11-13T15:08:04.116Z,3.17
2023-11-13T15:10:31.593Z,2.42
2023-11-13T15:12:59.020Z,2.30
2023-11-13T15:15:28.971Z,2.10
2023-11-13T15:17:56.374Z,1.77
2023-11-13T15:20:23.913Z,2.10
2023-11-13T15:23:09.082Z,3.00
2023-11-13T15:25:42.616Z,2.30
2023-11-13T15:28:11.539Z,2.50
2023-11-13T15:30:40.069Z,2.35
2023-11-13T15:33:09.447Z,3.05
2023-11-13T15:35:36.983Z,3.70
2023-11-13T15:38:05.801Z,2.35
2023-11-13T15:40:34.793Z,2.08
2023-11-13T15:43:02.452Z,1.98
2023-11-13T15:45:32.183Z,1.73
2023-11-13T15:48:00.794Z,1.60
2023-11-13T15:50:29.801Z,2.00
2023-11-13T15:52:57.196Z,2.00
2023-11-13T15:55:24.861Z,2.60
2023-11-13T15:57:57.230Z,2.20
2023-11-13T16:00:25.258Z,2.00
2023-11-13T16:02:52.775Z,1.67
2023-11-13T16:05:20.763Z,1.80
2023-11-13T16:07:49.339Z,1.55
2023-11-13T16:10:17.131Z,1.17
2023-11-13T16:12:44.684Z,1.40
2023-11-13T16:15:12.705Z,1.42
2023-11-13T16:17:40.964Z,1.25
2023-11-13T16:20:12.776Z,1.20
2023-11-13T16:22:40.841Z,1.40
2023-11-13T16:25:09.853Z,1.30
2023-11-13T16:27:38.600Z,1.17
2023-11-13T16:30:08.287Z,1.50
2023-11-13T16:32:36.818Z,1.33
2023-11-13T16:35:05.972Z,1.50
2023-11-13T16:37:34.044Z,1.92
2023-11-13T16:40:03.628Z,1.70
2023-11-13T16:42:31.348Z,1.90
2023-11-13T16:44:58.784Z,1.70
2023-11-13T16:47:26.370Z,1.60
2023-11-13T16:49:53.839Z,1.80
2023-11-13T16:52:21.678Z,1.75
2023-11-13T16:54:49.439Z,1.58
2023-11-13T16:57:16.990Z,1.60
2023-11-13T16:59:44.501Z,1.58
2023-11-13T17:02:12.496Z,2.00
2023-11-13T17:04:41.942Z,1.80
2023-11-13T17:07:09.475Z,1.50
2023-11-13T17:09:37.011Z,1.70
2023-11-13T17:12:05.019Z,1.60
2023-11-13T17:14:32.432Z,1.58
2023-11-13T17:16:59.891Z,1.58
2023-11-13T17:19:27.475Z,1.58
2023-11-13T17:21:54.989Z,1.67
2023-11-13T17:24:22.497Z,1.48
2023-11-13T17:26:49.937Z,1.50
2023-11-13T17:29:17.371Z,1.65
2023-11-13T17:31:44.919Z,1.67
2023-11-13T17:34:13.208Z,1.45
2023-11-13T17:36:40.636Z,1.40
2023-11-13T17:39:08.825Z,1.50
2023-11-13T17:41:36.466Z,1.58
2023-11-13T17:44:04.082Z,1.40
2023-11-13T17:46:31.745Z,1.65
2023-11-13T17:48:59.448Z,1.20
2023-11-13T17:51:29.154Z,1.20
2023-11-13T17:53:56.810Z,1.10
2023-11-13T17:56:24.220Z,1.10
2023-11-13T17:58:51.702Z,1.60
2023-11-13T18:01:21.355Z,1.15
2023-11-13T18:03:51.088Z,1.38
2023-11-13T18:06:18.610Z,1.08
2023-11-13T18:08:46.084Z,1.15
2023-11-13T18:11:14.154Z,1.15
2023-11-13T18:13:41.742Z,0.93
2023-11-13T18:16:10.017Z,1.20
2023-11-13T18:18:38.175Z,1.38
2023-11-13T18:21:05.887Z,1.40
2023-11-13T18:23:33.460Z,1.38
2023-11-13T18:26:02.247Z,1.10
2023-11-13T18:28:30.033Z,1.45
2023-11-13T18:30:59.100Z,1.23
2023-11-13T18:33:30.122Z,1.23
2023-11-13T18:35:58.530Z,1.35
2023-11-13T18:38:26.603Z,1.25
2023-11-13T18:40:54.131Z,1.20
2023-11-13T18:43:21.677Z,1.10
2023-11-13T18:45:52.531Z,1.50
2023-11-13T18:48:20.856Z,1.50
2023-11-13T18:50:48.517Z,1.00
2023-11-13T18:53:16.653Z,1.00
2023-11-13T18:55:46.623Z,1.10
2023-11-13T18:58:14.479Z,1.13
2023-11-13T19:00:41.906Z,1.20
2023-11-13T19:03:09.865Z,1.05
2023-11-13T19:05:37.559Z,1.10
2023-11-13T19:08:05.321Z,0.90
2023-11-13T19:10:32.883Z,0.98
2023-11-13T19:13:03.167Z,0.82
2023-11-13T19:15:30.670Z,1.00
2023-11-13T19:18:01.502Z,0.90
2023-11-13T19:20:29.062Z,1.15
2023-11-13T19:22:58.073Z,0.93
2023-11-13T19:25:25.879Z,0.90
2023-11-13T19:27:53.374Z,0.80
2023-11-13T19:30:21.349Z,1.17
2023-11-13T19:32:55.848Z,1.13
2023-11-13T19:35:28.756Z,1.25
2023-11-13T19:37:57.930Z,1.00
2023-11-13T19:40:25.697Z,3.40
2023-11-13T19:42:53.305Z,0.82
2023-11-13T19:45:22.315Z,0.73
2023-11-13T19:47:49.906Z,0.82
2023-11-13T19:50:17.476Z,0.77
2023-11-13T19:52:47.885Z,0.80
2023-11-13T19:55:17.059Z,1.00
2023-11-13T19:57:45.047Z,0.70
2023-11-13T20:00:17.650Z,0.90
2023-11-13T20:02:46.773Z,20.67
2023-11-13T20:05:14.627Z,9.50
2023-11-13T20:07:42.266Z,37.83
2023-11-13T20:10:11.292Z,0.98
2023-11-13T20:12:40.960Z,1.08
2023-11-13T20:15:09.038Z,0.85
2023-11-13T20:17:37.027Z,0.80
2023-11-13T20:20:05.085Z,1.10
2023-11-13T20:22:32.524Z,0.70
2023-11-13T20:25:00.004Z,0.80
2023-11-13T20:27:27.419Z,0.50
2023-11-13T20:30:03.620Z,0.50
2023-11-13T20:32:33.876Z,0.60
2023-11-13T20:35:01.804Z,0.60
2023-11-13T20:37:29.615Z,0.40
2023-11-13T20:39:57.211Z,0.60
2023-11-13T20:42:24.916Z,0.52
2023-11-13T20:44:52.424Z,0.60
2023-11-13T20:47:20.015Z,0.50
2023-11-13T20:49:47.823Z,0.60
2023-11-13T20:52:16.592Z,0.70
2023-11-13T20:54:45.772Z,0.65
2023-11-13T20:57:14.641Z,0.60
2023-11-13T20:59:42.195Z,0.57
2023-11-13T21:02:10.695Z,0.60
2023-11-13T21:04:39.047Z,0.60
2023-11-13T21:07:06.467Z,0.60
2023-11-13T21:09:33.929Z,0.50
2023-11-13T21:12:01.915Z,0.50
2023-11-13T21:14:31.718Z,0.90
2023-11-13T21:16:59.177Z,0.40
2023-11-13T21:19:26.716Z,0.43
2023-11-13T21:21:54.853Z,0.40
2023-11-13T21:24:22.293Z,0.60
2023-11-13T21:26:51.386Z,0.50
2023-11-13T21:29:19.762Z,0.70
2023-11-13T21:31:48.080Z,0.50
2023-11-13T21:34:15.561Z,0.50
2023-11-13T21:36:42.982Z,0.40
2023-11-13T21:39:12.037Z,0.50
2023-11-13T21:41:40.189Z,0.80
2023-11-13T21:44:08.100Z,0.70
2023-11-13T21:46:35.639Z,0.60
2023-11-13T21:49:05.696Z,0.70
2023-11-13T21:51:34.552Z,0.75
2023-11-13T21:54:04.122Z,0.73
2023-11-13T21:56:32.909Z,0.85
2023-11-13T21:59:00.438Z,0.70
2023-11-13T22:01:27.980Z,0.80
2023-11-13T22:03:55.477Z,0.80
2023-11-13T22:06:22.900Z,1.08
2023-11-13T22:08:50.258Z,0.82
2023-11-13T22:11:17.681Z,0.80
2023-11-13T22:13:45.224Z,0.70
2023-11-13T22:16:12.851Z,0.70
2023-11-13T22:18:40.398Z,0.73
2023-11-13T22:21:07.917Z,0.70
2023-11-13T22:23:35.312Z,0.70
2023-11-13T22:26:02.752Z,0.75
2023-11-13T22:28:30.188Z,0.70
2023-11-13T22:30:57.723Z,0.77
2023-11-13T22:33:25.233Z,0.80
2023-11-13T22:35:52.655Z,0.52
2023-11-13T22:38:20.044Z,0.60
2023-11-13T22:40:47.614Z,1.00
2023-11-13T22:43:16.077Z,0.70
2023-11-13T22:45:43.592Z,0.90
2023-11-13T22:48:11.110Z,0.80
2023-11-13T22:50:38.592Z,0.80
2023-11-13T22:53:06.128Z,0.68
2023-11-13T22:55:34.530Z,0.60
2023-11-13T22:58:02.034Z,0.80
2023-11-13T23:00:37.886Z,0.77
2023-11-13T23:03:09.473Z,0.80
2023-11-13T23:05:40.194Z,1.02
2023-11-13T23:08:07.627Z,0.80
2023-11-13T23:10:35.570Z,0.80
2023-11-13T23:13:03.050Z,0.70
2023-11-13T23:15:30.591Z,0.90
2023-11-13T23:17:58.535Z,0.82
2023-11-13T23:20:25.984Z,0.70
2023-11-13T23:22:53.556Z,0.80
2023-11-13T23:25:20.948Z,0.90
2023-11-13T23:27:48.334Z,0.70
2023-11-13T23:30:18.682Z,1.00
2023-11-13T23:32:49.940Z,0.77
2023-11-13T23:35:17.485Z,0.60
2023-11-13T23:37:45.007Z,0.80
2023-11-13T23:40:14.018Z,0.77
2023-11-13T23:42:42.805Z,0.55
2023-11-13T23:45:10.368Z,0.70
2023-11-13T23:47:38.126Z,0.70
2023-11-13T23:50:09.928Z,0.80
2023-11-13T23:52:38.669Z,0.60
2023-11-13T23:55:06.767Z,0.80
2023-11-13T23:57:34.236Z,0.70
